createdAt,value
2023-01-28T00:00:37.978Z,2.76
2023-01-28T00:03:04.582Z,2.80
2023-01-28T00:05:33.642Z,2.74
2023-01-28T00:08:00.185Z,2.78
2023-01-28T00:10:26.607Z,2.73
2023-01-28T00:12:53.145Z,2.81
2023-01-28T00:15:19.640Z,2.80
2023-01-28T00:17:46.057Z,2.80
2023-01-28T00:20:12.799Z,2.78
2023-01-28T00:22:39.216Z,2.81
2023-01-28T00:25:05.810Z,2.84
2023-01-28T00:27:32.726Z,2.78
2023-01-28T00:29:59.156Z,2.79
2023-01-28T00:32:26.088Z,2.81
2023-01-28T00:34:52.529Z,2.87
2023-01-28T00:37:19.003Z,2.81
2023-01-28T00:39:45.554Z,2.77
2023-01-28T00:42:11.991Z,2.77
2023-01-28T00:44:38.420Z,2.78
2023-01-28T00:47:04.860Z,2.88
2023-01-28T00:49:31.344Z,2.81
2023-01-28T00:51:57.892Z,2.88
2023-01-28T00:54:24.343Z,2.86
2023-01-28T00:56:53.657Z,2.83
2023-01-28T00:59:20.387Z,2.83
2023-01-28T01:01:47.090Z,2.88
2023-01-28T01:04:13.547Z,2.83
2023-01-28T01:06:41.050Z,2.81
2023-01-28T01:09:10.594Z,2.89
2023-01-28T01:11:37.233Z,2.82
2023-01-28T01:14:06.925Z,2.71
2023-01-28T01:16:35.358Z,2.77
2023-01-28T01:19:02.058Z,2.81
2023-01-28T01:21:29.807Z,2.76
2023-01-28T01:23:56.817Z,2.84
2023-01-28T01:26:23.508Z,2.80
2023-01-28T01:28:51.591Z,2.66
2023-01-28T01:31:20.721Z,2.68
2023-01-28T01:33:49.328Z,2.65
2023-01-28T01:36:17.150Z,2.69
2023-01-28T01:38:43.765Z,2.63
2023-01-28T01:41:22.252Z,2.63
2023-01-28T01:43:56.481Z,2.61
2023-01-28T01:46:43.730Z,2.56
2023-01-28T01:49:26.011Z,2.59
2023-01-28T01:51:57.593Z,2.54
2023-01-28T01:54:29.097Z,2.62
2023-01-28T01:56:55.871Z,2.62
2023-01-28T01:59:28.226Z,2.58
2023-01-28T02:01:55.365Z,2.61
2023-01-28T02:04:31.868Z,2.62
2023-01-28T02:07:00.546Z,2.65
2023-01-28T02:09:32.743Z,2.60
2023-01-28T02:12:04.227Z,2.68
2023-01-28T02:14:34.772Z,2.61
2023-01-28T02:17:02.536Z,2.71
2023-01-28T02:19:38.102Z,2.86
2023-01-28T02:22:30.994Z,2.78
2023-01-28T02:25:27.254Z,2.81
2023-01-28T02:28:05.941Z,2.82
2023-01-28T02:30:39.009Z,2.76
2023-01-28T02:33:14.246Z,2.83
2023-01-28T02:35:48.681Z,2.82
2023-01-28T02:38:22.541Z,2.88
2023-01-28T02:41:03.874Z,2.92
2023-01-28T02:43:41.859Z,2.92
2023-01-28T02:46:41.290Z,2.60
2023-01-28T02:49:16.245Z,2.70
2023-01-28T02:52:52.201Z,2.77
2023-01-28T02:55:32.576Z,2.68
2023-01-28T02:58:14.318Z,2.59
2023-01-28T03:01:09.532Z,2.44
2023-01-28T03:04:07.533Z,2.43
2023-01-28T03:06:39.683Z,2.36
2023-01-28T03:09:22.447Z,2.39
2023-01-28T03:12:12.915Z,2.51
2023-01-28T03:14:58.843Z,2.59
2023-01-28T03:17:53.746Z,2.54
2023-01-28T03:20:40.900Z,2.64
2023-01-28T03:23:33.278Z,2.65
2023-01-28T03:26:20.107Z,2.62
2023-01-28T03:29:07.919Z,2.66
2023-01-28T03:31:54.250Z,2.70
2023-01-28T03:34:40.923Z,2.65
2023-01-28T03:37:09.014Z,2.55
2023-01-28T03:39:35.907Z,2.63
2023-01-28T03:42:08.520Z,2.67
2023-01-28T03:44:51.839Z,2.66
2023-01-28T03:47:29.623Z,2.74
2023-01-28T03:49:59.735Z,2.75
2023-01-28T03:52:32.191Z,2.79
2023-01-28T03:54:58.807Z,2.81
2023-01-28T03:57:27.573Z,2.84
2023-01-28T03:59:54.232Z,2.86
2023-01-28T04:02:22.173Z,2.91
2023-01-28T04:04:50.180Z,2.87
2023-01-28T04:07:17.223Z,2.88
2023-01-28T04:09:44.590Z,2.83
2023-01-28T04:12:11.326Z,2.86
2023-01-28T04:14:39.289Z,2.90
2023-01-28T04:17:07.539Z,2.83
2023-01-28T04:19:37.304Z,2.81
2023-01-28T04:22:06.315Z,2.83
2023-01-28T04:24:33.232Z,2.96
2023-01-28T04:26:59.754Z,2.91
2023-01-28T04:29:26.261Z,2.90
2023-01-28T04:31:52.810Z,3.00
2023-01-28T04:34:20.480Z,2.96
2023-01-28T04:36:47.070Z,2.96
2023-01-28T04:39:13.577Z,2.97
2023-01-28T04:41:39.964Z,3.07
2023-01-28T04:44:06.643Z,3.04
2023-01-28T04:46:33.103Z,3.04
2023-01-28T04:48:59.740Z,3.06
2023-01-28T04:51:26.233Z,3.05
2023-01-28T04:53:52.703Z,3.07
2023-01-28T04:56:19.174Z,3.04
2023-01-28T04:58:45.587Z,3.08
2023-01-28T05:01:12.104Z,3.08
2023-01-28T05:03:38.775Z,2.92
2023-01-28T05:06:05.547Z,2.83
2023-01-28T05:08:32.116Z,2.91
2023-01-28T05:10:58.622Z,2.91
2023-01-28T05:13:25.385Z,2.96
2023-01-28T05:15:53.296Z,3.03
2023-01-28T05:18:20.234Z,2.92
2023-01-28T05:20:47.601Z,2.83
2023-01-28T05:23:14.133Z,2.90
2023-01-28T05:25:40.602Z,2.94
2023-01-28T05:28:07.096Z,2.96
2023-01-28T05:30:33.630Z,2.97
2023-01-28T05:33:00.272Z,2.90
2023-01-28T05:35:26.745Z,2.87
2023-01-28T05:37:53.206Z,2.97
2023-01-28T05:40:19.853Z,3.03
2023-01-28T05:42:46.358Z,3.01
2023-01-28T05:45:13.018Z,3.04
2023-01-28T05:47:39.773Z,2.90
2023-01-28T05:50:07.667Z,3.02
2023-01-28T05:52:34.439Z,3.03
2023-01-28T05:55:01.378Z,2.95
2023-01-28T05:57:27.810Z,3.03
2023-01-28T05:59:54.325Z,3.02
2023-01-28T06:02:20.973Z,3.02
2023-01-28T06:04:47.642Z,3.01
2023-01-28T06:07:15.671Z,3.04
2023-01-28T06:09:42.161Z,3.13
2023-01-28T06:12:08.615Z,3.07
2023-01-28T06:14:35.063Z,3.05
2023-01-28T06:17:01.572Z,3.04
2023-01-28T06:19:28.286Z,3.07
2023-01-28T06:21:54.799Z,3.03
2023-01-28T06:24:21.384Z,3.10
2023-01-28T06:26:47.989Z,2.97
2023-01-28T06:29:14.458Z,3.08
2023-01-28T06:31:40.958Z,3.12
2023-01-28T06:34:07.572Z,3.12
2023-01-28T06:36:34.008Z,3.14
2023-01-28T06:39:00.479Z,3.08
2023-01-28T06:41:27.153Z,3.11
2023-01-28T06:43:53.747Z,3.25
2023-01-28T06:46:20.426Z,3.19
2023-01-28T06:48:47.107Z,3.20
2023-01-28T06:51:13.579Z,3.11
2023-01-28T06:53:39.942Z,3.16
2023-01-28T06:56:06.922Z,3.12
2023-01-28T06:58:33.594Z,3.04
2023-01-28T07:01:00.196Z,3.02
2023-01-28T07:03:26.906Z,2.99
2023-01-28T07:05:53.374Z,3.03
2023-01-28T07:08:19.899Z,2.98
2023-01-28T07:10:46.516Z,2.95
2023-01-28T07:13:12.957Z,2.92
2023-01-28T07:15:39.408Z,3.02
2023-01-28T07:18:05.911Z,2.99
2023-01-28T07:20:32.438Z,2.88
2023-01-28T07:22:58.860Z,3.02
2023-01-28T07:25:25.405Z,3.05
2023-01-28T07:27:53.381Z,3.16
2023-01-28T07:30:21.227Z,3.22
2023-01-28T07:32:52.617Z,3.19
2023-01-28T07:35:19.191Z,3.23
2023-01-28T07:37:51.730Z,3.31
2023-01-28T07:40:18.451Z,3.21
2023-01-28T07:42:44.932Z,3.25
2023-01-28T07:45:11.606Z,3.19
2023-01-28T07:47:38.103Z,3.29
2023-01-28T07:50:04.839Z,3.38
2023-01-28T07:52:31.370Z,3.40
2023-01-28T07:54:57.764Z,3.41
2023-01-28T07:57:24.252Z,3.53
2023-01-28T07:59:51.181Z,3.66
2023-01-28T08:02:18.438Z,3.60
2023-01-28T08:04:46.472Z,3.58
2023-01-28T08:07:13.206Z,3.60
2023-01-28T08:09:39.761Z,3.60
2023-01-28T08:12:06.236Z,3.56
2023-01-28T08:14:32.728Z,3.74
2023-01-28T08:16:59.318Z,3.62
2023-01-28T08:19:25.936Z,3.73
2023-01-28T08:21:52.418Z,3.82
2023-01-28T08:24:18.854Z,3.88
2023-01-28T08:26:48.172Z,3.92
2023-01-28T08:29:14.666Z,3.94
2023-01-28T08:31:41.136Z,3.83
2023-01-28T08:34:07.732Z,3.74
2023-01-28T08:36:34.123Z,3.55
2023-01-28T08:39:00.582Z,3.77
2023-01-28T08:41:27.079Z,4.01
2023-01-28T08:43:53.508Z,4.19
2023-01-28T08:46:20.149Z,4.35
2023-01-28T08:48:46.778Z,4.34
2023-01-28T08:51:13.176Z,4.29
2023-01-28T08:53:39.655Z,4.27
2023-01-28T08:56:06.678Z,4.31
2023-01-28T08:58:33.351Z,4.41
2023-01-28T09:01:04.886Z,4.34
2023-01-28T09:03:31.587Z,4.44
2023-01-28T09:06:06.976Z,4.47
2023-01-28T09:08:33.454Z,4.49
2023-01-28T09:11:00.496Z,4.62
2023-01-28T09:13:28.471Z,4.78
2023-01-28T09:15:55.043Z,4.88
2023-01-28T09:18:21.867Z,4.77
2023-01-28T09:20:48.383Z,4.62
2023-01-28T09:23:14.883Z,4.52
2023-01-28T09:25:41.491Z,4.49
2023-01-28T09:28:08.133Z,4.61
2023-01-28T09:30:37.313Z,4.86
2023-01-28T09:33:04.385Z,4.89
2023-01-28T09:35:31.019Z,4.78
2023-01-28T09:37:58.737Z,4.84
2023-01-28T09:40:33.306Z,4.89
2023-01-28T09:43:04.879Z,5.02
2023-01-28T09:45:40.678Z,5.34
2023-01-28T09:48:14.208Z,5.20
2023-01-28T09:50:45.491Z,4.96
2023-01-28T09:53:29.348Z,5.08
2023-01-28T09:56:06.280Z,5.20
2023-01-28T09:58:32.942Z,5.17
2023-01-28T10:01:05.520Z,5.38
2023-01-28T10:03:47.781Z,5.48
2023-01-28T10:06:27.643Z,5.60
2023-01-28T10:09:11.311Z,5.68
2023-01-28T10:11:57.420Z,6.07
2023-01-28T10:14:38.142Z,6.34
2023-01-28T10:17:09.876Z,6.63
2023-01-28T10:19:44.051Z,7.06
2023-01-28T10:22:21.559Z,7.59
2023-01-28T10:25:03.624Z,7.80
2023-01-28T10:27:31.947Z,7.77
2023-01-28T10:30:00.338Z,7.79
2023-01-28T10:32:32.064Z,7.51
2023-01-28T10:35:04.660Z,7.07
2023-01-28T10:37:35.569Z,6.76
2023-01-28T10:40:04.073Z,6.57
2023-01-28T10:42:36.268Z,6.72
2023-01-28T10:45:23.007Z,6.54
2023-01-28T10:48:11.185Z,6.47
2023-01-28T10:50:37.622Z,6.19
2023-01-28T10:53:06.064Z,5.91
2023-01-28T10:55:57.869Z,5.94
2023-01-28T10:58:27.126Z,6.00
2023-01-28T11:00:56.899Z,5.97
2023-01-28T11:03:27.346Z,6.13
2023-01-28T11:05:55.659Z,6.66
2023-01-28T11:08:23.127Z,6.91
2023-01-28T11:10:51.047Z,6.89
2023-01-28T11:13:23.406Z,6.89
2023-01-28T11:15:52.926Z,6.05
2023-01-28T11:18:25.090Z,5.92
2023-01-28T11:20:56.765Z,6.32
2023-01-28T11:23:41.243Z,6.26
2023-01-28T11:26:15.965Z,6.15
2023-01-28T11:28:43.516Z,6.22
2023-01-28T11:31:14.435Z,6.45
2023-01-28T11:33:57.688Z,6.29
2023-01-28T11:36:31.469Z,6.37
2023-01-28T11:39:03.252Z,6.26
2023-01-28T11:41:35.625Z,6.24
2023-01-28T11:44:12.092Z,6.17
2023-01-28T11:46:52.410Z,6.07
2023-01-28T11:49:27.634Z,6.27
2023-01-28T11:52:20.321Z,6.36
2023-01-28T11:55:10.900Z,6.19
2023-01-28T11:57:49.565Z,6.12
2023-01-28T12:00:31.573Z,5.86
2023-01-28T12:03:13.235Z,5.82
2023-01-28T12:05:45.859Z,5.81
2023-01-28T12:08:25.362Z,5.57
2023-01-28T12:11:21.281Z,5.60
2023-01-28T12:14:30.042Z,5.62
2023-01-28T12:17:11.389Z,5.46
2023-01-28T12:20:05.612Z,5.48
2023-01-28T12:23:03.041Z,5.44
2023-01-28T12:26:04.383Z,5.61
2023-01-28T12:28:45.954Z,5.72
2023-01-28T12:31:12.448Z,5.79
2023-01-28T12:33:49.094Z,5.75
2023-01-28T12:36:46.906Z,5.66
2023-01-28T12:39:25.104Z,5.40
2023-01-28T12:42:00.115Z,5.45
2023-01-28T12:44:33.219Z,5.38
2023-01-28T12:47:12.357Z,4.96
2023-01-28T12:50:15.784Z,5.07
2023-01-28T12:52:49.540Z,4.88
2023-01-28T12:55:22.624Z,4.83
2023-01-28T12:57:50.989Z,4.78
2023-01-28T13:00:54.625Z,4.98
2023-01-28T13:03:38.942Z,4.91
2023-01-28T13:06:13.527Z,5.01
2023-01-28T13:08:39.990Z,5.14
2023-01-28T13:11:14.264Z,5.21
2023-01-28T13:13:42.694Z,5.24
2023-01-28T13:16:10.217Z,5.02
2023-01-28T13:18:39.690Z,4.99
2023-01-28T13:21:08.283Z,4.94
2023-01-28T13:23:42.033Z,4.81
2023-01-28T13:26:23.030Z,4.90
2023-01-28T13:28:52.256Z,4.77
2023-01-28T13:31:22.289Z,4.86
2023-01-28T13:33:55.105Z,4.99
2023-01-28T13:36:38.901Z,5.19
2023-01-28T13:39:15.982Z,5.26
2023-01-28T13:41:46.607Z,5.40
2023-01-28T13:44:20.669Z,5.43
2023-01-28T13:46:47.365Z,5.65
2023-01-28T13:49:21.374Z,5.74
2023-01-28T13:51:59.104Z,6.04
2023-01-28T13:54:28.592Z,6.04
2023-01-28T13:57:01.153Z,5.81
2023-01-28T13:59:54.903Z,5.73
2023-01-28T14:02:43.254Z,5.67
2023-01-28T14:05:25.129Z,5.45
2023-01-28T14:08:11.510Z,5.38
2023-01-28T14:11:15.451Z,5.43
2023-01-28T14:14:24.819Z,5.87
2023-01-28T14:16:56.979Z,6.02
2023-01-28T14:19:29.929Z,5.95
2023-01-28T14:21:56.689Z,5.90
2023-01-28T14:24:23.625Z,5.93
2023-01-28T14:27:01.744Z,5.80
2023-01-28T14:29:49.298Z,5.27
2023-01-28T14:32:27.057Z,5.09
2023-01-28T14:34:54.407Z,5.08
2023-01-28T14:37:24.988Z,4.94
2023-01-28T14:39:56.319Z,5.07
2023-01-28T14:42:30.035Z,5.09
2023-01-28T14:45:11.520Z,5.01
2023-01-28T14:47:56.601Z,5.03
2023-01-28T14:50:26.061Z,4.73
2023-01-28T14:53:22.160Z,4.83
2023-01-28T14:55:53.471Z,4.84
2023-01-28T14:58:25.365Z,4.94
2023-01-28T15:00:59.140Z,4.95
2023-01-28T15:03:28.094Z,4.90
2023-01-28T15:06:05.018Z,4.80
2023-01-28T15:08:32.465Z,4.86
2023-01-28T15:11:01.397Z,4.95
2023-01-28T15:13:32.569Z,4.95
2023-01-28T15:16:00.766Z,5.07
2023-01-28T15:18:48.096Z,5.03
2023-01-28T15:21:20.022Z,5.04
2023-01-28T15:24:00.059Z,5.09
2023-01-28T15:26:29.245Z,5.02
2023-01-28T15:28:56.835Z,4.96
2023-01-28T15:31:24.723Z,4.73
2023-01-28T15:34:14.664Z,4.54
2023-01-28T15:36:41.782Z,4.55
2023-01-28T15:39:20.781Z,4.44
2023-01-28T15:42:00.475Z,4.36
2023-01-28T15:44:31.310Z,4.39
2023-01-28T15:47:02.986Z,4.42
2023-01-28T15:49:36.875Z,4.43
2023-01-28T15:52:04.261Z,4.42
2023-01-28T15:54:31.547Z,4.36
2023-01-28T15:57:09.361Z,4.34
2023-01-28T15:59:35.917Z,4.35
2023-01-28T16:02:22.767Z,4.37
2023-01-28T16:05:03.849Z,4.31
2023-01-28T16:07:33.094Z,4.37
2023-01-28T16:10:03.506Z,4.32
2023-01-28T16:12:30.023Z,4.30
2023-01-28T16:15:03.086Z,4.26
2023-01-28T16:17:36.269Z,4.27
2023-01-28T16:20:07.821Z,4.28
2023-01-28T16:22:36.843Z,4.28
2023-01-28T16:25:24.213Z,4.27
2023-01-28T16:27:50.741Z,4.20
2023-01-28T16:30:17.905Z,4.11
2023-01-28T16:32:45.091Z,4.19
2023-01-28T16:35:20.126Z,4.23
2023-01-28T16:37:47.964Z,4.16
2023-01-28T16:40:19.821Z,4.19
2023-01-28T16:42:48.516Z,4.13
2023-01-28T16:45:21.539Z,4.28
2023-01-28T16:47:48.088Z,4.18
2023-01-28T16:50:15.477Z,4.18
2023-01-28T16:52:44.404Z,4.15
2023-01-28T16:55:14.289Z,4.20
2023-01-28T16:57:41.750Z,4.11
2023-01-28T17:00:17.299Z,4.19
2023-01-28T17:02:44.502Z,4.16
2023-01-28T17:05:12.064Z,4.13
2023-01-28T17:07:38.544Z,4.20
2023-01-28T17:10:05.692Z,4.15
2023-01-28T17:12:32.172Z,4.05
2023-01-28T17:14:58.766Z,4.09
2023-01-28T17:17:25.252Z,4.18
2023-01-28T17:19:51.738Z,4.07
2023-01-28T17:22:18.230Z,4.12
2023-01-28T17:24:44.701Z,4.20
2023-01-28T17:27:11.341Z,4.13
2023-01-28T17:29:37.941Z,4.09
2023-01-28T17:32:04.627Z,3.98
2023-01-28T17:34:31.455Z,3.98
2023-01-28T17:36:57.886Z,3.94
2023-01-28T17:39:24.471Z,3.90
2023-01-28T17:41:52.162Z,3.97
2023-01-28T17:44:19.465Z,3.92
2023-01-28T17:46:46.429Z,3.92
2023-01-28T17:49:13.448Z,3.91
2023-01-28T17:51:40.001Z,3.98
2023-01-28T17:54:06.806Z,4.01
2023-01-28T17:56:33.266Z,4.02
2023-01-28T17:59:06.528Z,4.02
2023-01-28T18:01:35.670Z,3.94
2023-01-28T18:04:02.266Z,3.81
2023-01-28T18:06:33.909Z,3.82
2023-01-28T18:09:00.699Z,3.94
2023-01-28T18:11:28.023Z,3.93
2023-01-28T18:13:54.503Z,3.93
2023-01-28T18:16:21.889Z,3.80
2023-01-28T18:18:49.740Z,3.79
2023-01-28T18:21:51.824Z,3.78
2023-01-28T18:24:20.463Z,3.82
2023-01-28T18:26:47.040Z,3.82
2023-01-28T18:29:17.073Z,3.84
2023-01-28T18:31:44.157Z,3.86
2023-01-28T18:34:10.599Z,3.95
2023-01-28T18:36:37.033Z,3.93
2023-01-28T18:39:03.665Z,4.02
2023-01-28T18:41:30.240Z,3.98
2023-01-28T18:43:56.816Z,4.05
2023-01-28T18:46:23.303Z,3.99
2023-01-28T18:48:49.764Z,4.01
2023-01-28T18:51:30.937Z,4.01
2023-01-28T18:54:02.260Z,4.02
2023-01-28T18:56:29.596Z,4.02
2023-01-28T18:59:01.265Z,3.97
2023-01-28T19:01:29.216Z,4.01
2023-01-28T19:03:57.132Z,3.95
2023-01-28T19:06:24.935Z,3.93
2023-01-28T19:08:56.404Z,3.99
2023-01-28T19:11:24.517Z,4.02
2023-01-28T19:13:51.606Z,3.94
2023-01-28T19:16:19.308Z,3.84
2023-01-28T19:18:52.721Z,3.90
2023-01-28T19:21:19.740Z,3.88
2023-01-28T19:23:50.168Z,3.89
2023-01-28T19:26:21.065Z,3.86
2023-01-28T19:28:49.297Z,3.85
2023-01-28T19:31:18.666Z,3.79
2023-01-28T19:33:45.706Z,3.82
2023-01-28T19:36:13.710Z,3.74
2023-01-28T19:38:40.743Z,3.64
2023-01-28T19:41:07.872Z,3.53
2023-01-28T19:43:35.107Z,3.35
2023-01-28T19:46:04.452Z,3.29
2023-01-28T19:48:32.071Z,3.22
2023-01-28T19:50:59.134Z,3.15
2023-01-28T19:53:25.698Z,3.21
2023-01-28T19:55:52.452Z,3.30
2023-01-28T19:58:19.027Z,3.35
2023-01-28T20:00:45.506Z,3.39
2023-01-28T20:03:12.823Z,3.42
2023-01-28T20:05:39.417Z,3.46
2023-01-28T20:08:05.974Z,3.43
2023-01-28T20:10:32.652Z,3.48
2023-01-28T20:12:59.092Z,3.45
2023-01-28T20:15:25.611Z,3.45
2023-01-28T20:17:52.052Z,3.46
2023-01-28T20:20:18.622Z,3.60
2023-01-28T20:22:45.038Z,3.65
2023-01-28T20:25:11.589Z,3.68
2023-01-28T20:27:38.028Z,3.71
2023-01-28T20:30:05.051Z,3.73
2023-01-28T20:32:31.564Z,3.73
2023-01-28T20:34:57.968Z,3.76
2023-01-28T20:37:24.460Z,3.73
2023-01-28T20:39:51.075Z,3.79
2023-01-28T20:42:17.533Z,3.85
2023-01-28T20:44:44.311Z,3.78
2023-01-28T20:47:14.529Z,3.73
2023-01-28T20:49:40.924Z,3.77
2023-01-28T20:52:07.457Z,3.88
2023-01-28T20:54:33.916Z,3.85
2023-01-28T20:57:00.436Z,3.81
2023-01-28T20:59:27.508Z,3.79
2023-01-28T21:01:54.085Z,3.81
2023-01-28T21:04:20.785Z,3.80
2023-01-28T21:06:47.369Z,3.80
2023-01-28T21:09:13.805Z,3.80
2023-01-28T21:11:40.464Z,3.79
2023-01-28T21:14:06.912Z,3.80
2023-01-28T21:16:33.459Z,3.79
2023-01-28T21:19:00.025Z,3.74
2023-01-28T21:21:28.318Z,3.68
2023-01-28T21:23:57.832Z,3.67
2023-01-28T21:26:24.779Z,3.61
2023-01-28T21:28:51.561Z,3.63
2023-01-28T21:31:26.316Z,3.66
2023-01-28T21:33:55.649Z,3.74
2023-01-28T21:36:23.531Z,3.74
2023-01-28T21:38:54.926Z,3.70
2023-01-28T21:41:21.706Z,3.67
2023-01-28T21:43:53.826Z,3.59
2023-01-28T21:46:22.006Z,3.63
2023-01-28T21:48:48.609Z,3.61
2023-01-28T21:51:33.928Z,3.59
2023-01-28T21:54:02.940Z,3.63
2023-01-28T21:56:29.592Z,3.62
2023-01-28T21:59:15.112Z,3.55
2023-01-28T22:01:44.506Z,3.53
2023-01-28T22:04:11.267Z,3.52
2023-01-28T22:06:37.767Z,3.56
2023-01-28T22:09:04.457Z,3.49
2023-01-28T22:11:31.184Z,3.58
2023-01-28T22:13:57.604Z,3.59
2023-01-28T22:16:24.127Z,3.56
2023-01-28T22:18:50.578Z,3.53
2023-01-28T22:21:17.168Z,3.54
2023-01-28T22:23:43.639Z,3.54
2023-01-28T22:26:10.181Z,3.57
2023-01-28T22:28:37.924Z,3.56
2023-01-28T22:31:07.400Z,3.47
2023-01-28T22:33:37.144Z,3.51
2023-01-28T22:36:09.345Z,3.47
2023-01-28T22:38:42.610Z,3.56
2023-01-28T22:41:19.867Z,3.44
2023-01-28T22:43:47.012Z,3.48
2023-01-28T22:46:13.996Z,3.41
2023-01-28T22:48:44.275Z,3.43
2023-01-28T22:51:25.804Z,3.43
2023-01-28T22:53:53.027Z,3.29
2023-01-28T22:56:22.091Z,3.42
2023-01-28T22:58:48.975Z,3.36
2023-01-28T23:01:16.005Z,3.40
2023-01-28T23:03:47.447Z,3.38
2023-01-28T23:06:16.699Z,3.39
2023-01-28T23:08:44.892Z,3.23
2023-01-28T23:11:15.358Z,3.32
2023-01-28T23:14:02.039Z,3.36
2023-01-28T23:16:48.640Z,3.36
2023-01-28T23:19:34.470Z,3.40
2023-01-28T23:22:19.859Z,3.39
2023-01-28T23:24:46.349Z,3.30
2023-01-28T23:27:12.768Z,3.29
2023-01-28T23:29:39.156Z,3.33
2023-01-28T23:32:09.750Z,3.38
2023-01-28T23:34:41.478Z,3.41
2023-01-28T23:37:09.740Z,3.37
2023-01-28T23:39:36.338Z,3.35
2023-01-28T23:42:14.557Z,3.42
2023-01-28T23:44:41.205Z,3.48
2023-01-28T23:47:07.799Z,3.38
2023-01-28T23:49:34.343Z,3.39
2023-01-28T23:52:01.527Z,3.28
2023-01-28T23:54:27.955Z,3.24
2023-01-28T23:56:54.428Z,3.18
2023-01-28T23:59:21.045Z,3.15
